Weather at Verona Villafranca Airport

Public forecast

Using degrees Celsius for public forecast. Weather courtesy of forecast.io.

Current aviation weather report (METAR) for Verona Villafranca Airport

Retrieved 2021/05/16 20:20 UTC (24 minutes ago):

LIPX 162020Z 16002KT 8000 BKN040 15/14 Q1005

Aviation forecast (TAF) for Verona Villafranca Airport

Forecast is more than 12 hours old.

Retrieved 2014/04/22 15:24 UTC (7 years ago):

TAF TAF LIPX 221400Z 2215/2324 VRB05KT 9999 SCT030 SCT070 TEMPO 2215/2218 SCT025CB SCT080 PROB30 TEMPO 2215/2218 TS